Time;durP1;ratioP1;P1;durP2;ratioP2;P2;SDS_P1;SDS_P2;PMS_P1;PMS_P2;Temp;Humidity;BMP_temperature;BMP_pressure;BME280_temperature;BME280_humidity;BME280_pressure;Samples;Min_cycle;Max_cycle;Signal;HPM_P1;HPM_P2
2021/08/07 00:02:23;;;;;;;8.48;1.30;;;;;;;22.20;59.33;99889.41;5053918;28;20045;-60
2021/08/07 00:04:50;;;;;;;2.90;1.40;;;;;;;22.01;59.33;99887.34;5065004;28;20040;-61
2021/08/07 00:07:17;;;;;;;3.20;1.50;;;;;;;21.72;59.71;99891.59;5057596;28;20149;-60
2021/08/07 00:09:44;;;;;;;6.40;2.28;;;;;;;21.56;60.07;99892.84;5057399;28;20127;-62
2021/08/07 00:12:11;;;;;;;5.13;2.75;;;;;;;21.44;60.71;99891.78;5068827;28;20149;-58
2021/08/07 00:14:38;;;;;;;5.30;1.52;;;;;;;21.33;60.84;99890.66;5069789;28;20136;-58
2021/08/07 00:17:05;;;;;;;8.10;1.83;;;;;;;21.31;60.89;99887.38;5054925;28;20495;-57
2021/08/07 00:19:32;;;;;;;7.30;1.83;;;;;;;20.94;61.47;99864.97;5063280;28;20047;-57
2021/08/07 00:21:58;;;;;;;3.83;1.40;;;;;;;20.59;62.23;99856.38;5070172;28;20127;-59
2021/08/07 00:24:25;;;;;;;9.07;1.50;;;;;;;20.58;62.61;99872.59;5042743;28;20080;-59
2021/08/07 00:26:52;;;;;;;2.40;1.25;;;;;;;20.27;64.31;99861.16;5072996;28;20094;-58
2021/08/07 00:29:19;;;;;;;2.78;1.15;;;;;;;20.21;66.00;99854.94;5061822;28;20441;-62
2021/08/07 00:31:46;;;;;;;2.17;1.08;;;;;;;20.04;66.46;99850.41;5053341;28;20600;-60
2021/08/07 00:34:13;;;;;;;3.40;1.27;;;;;;;19.91;67.58;99843.16;5059806;28;20123;-59
2021/08/07 00:36:40;;;;;;;9.60;1.50;;;;;;;19.71;69.22;99839.31;5072061;28;20484;-60
2021/08/07 00:39:07;;;;;;;4.75;1.48;;;;;;;19.70;69.62;99853.88;5052150;28;20055;-61
2021/08/07 00:41:34;;;;;;;5.97;1.60;;;;;;;19.66;69.91;99848.09;5058402;28;20100;-61
2021/08/07 00:44:00;;;;;;;4.93;1.88;;;;;;;19.77;70.52;99845.56;5063758;28;20489;-60
2021/08/07 00:46:27;;;;;;;5.80;1.52;;;;;;;19.73;70.49;99825.66;5063047;28;20124;-61
2021/08/07 00:48:54;;;;;;;4.68;1.92;;;;;;;19.79;71.30;99837.53;5060767;28;20079;-60
2021/08/07 00:51:21;;;;;;;3.95;1.73;;;;;;;19.73;71.52;99833.31;5063963;28;20139;-58
2021/08/07 00:53:48;;;;;;;4.47;1.75;;;;;;;19.81;71.51;99833.16;5074906;28;20088;-62
2021/08/07 00:56:15;;;;;;;3.15;1.65;;;;;;;19.74;71.91;99837.78;5051193;28;20466;-60
2021/08/07 00:58:42;;;;;;;3.33;1.75;;;;;;;19.48;72.57;99836.16;5058989;28;20083;-62
2021/08/07 01:01:13;;;;;;;4.28;1.58;;;;;;;19.48;73.38;99833.34;5056236;28;20518;-60
2021/08/07 01:03:53;;;;;;;7.30;1.70;;;;;;;19.28;73.96;99795.56;5052017;28;20041;-60
2021/08/07 01:06:26;;;;;;;4.15;1.17;;;;;;;19.43;74.05;99825.09;5063333;28;20172;-59
2021/08/07 01:09:02;;;;;;;2.03;1.27;;;;;;;19.28;74.75;99828.66;5065834;28;20155;-60
2021/08/07 01:11:36;;;;;;;4.68;1.50;;;;;;;19.25;74.48;99829.38;5066699;28;20139;-60
2021/08/07 01:14:06;;;;;;;5.30;1.90;;;;;;;19.17;75.20;99831.16;5051307;28;20080;-60
2021/08/07 01:16:38;;;;;;;3.97;1.77;;;;;;;19.21;75.16;99825.63;5072140;28;20123;-60
2021/08/07 01:19:14;;;;;;;5.60;1.65;;;;;;;19.30;74.74;99818.66;5059322;28;20127;-60
2021/08/07 01:21:48;;;;;;;2.78;0.98;;;;;;;19.20;75.61;99823.97;5064615;28;20191;-60
2021/08/07 01:24:26;;;;;;;5.80;1.25;;;;;;;19.00;76.23;99823.75;5063000;28;20128;-60
2021/08/07 01:26:59;;;;;;;2.05;1.20;;;;;;;18.97;76.81;99827.28;5058411;28;20044;-60
2021/08/07 01:29:28;;;;;;;3.00;1.15;;;;;;;18.87;77.44;99817.31;5068362;28;20166;-60
2021/08/07 01:31:55;;;;;;;2.55;1.30;;;;;;;18.82;77.05;99822.38;5060818;28;20128;-60
2021/08/07 01:34:23;;;;;;;7.55;1.50;;;;;;;18.91;76.58;99840.06;5064447;28;20585;-60
2021/08/07 01:36:49;;;;;;;3.50;1.40;;;;;;;18.87;76.39;99861.72;5069843;28;20135;-60
2021/08/07 01:39:16;;;;;;;4.32;1.42;;;;;;;18.97;77.31;99863.25;5058788;28;20124;-60
2021/08/07 01:41:43;;;;;;;1.83;0.47;;;;;;;19.09;76.76;99875.41;5048314;28;20077;-60
2021/08/07 01:44:10;;;;;;;3.88;0.93;;;;;;;18.98;76.75;99860.09;5057654;28;20045;-61
2021/08/07 01:46:54;;;;;;;2.60;0.80;;;;;;;19.04;76.90;99858.69;5064345;28;20124;-61
2021/08/07 01:49:36;;;;;;;1.92;0.60;;;;;;;19.04;77.23;99867.16;5063724;28;20072;-59
2021/08/07 01:52:11;;;;;;;4.20;0.50;;;;;;;19.00;76.77;99865.38;5065578;28;20070;-59
2021/08/07 01:54:45;;;;;;;2.33;0.77;;;;;;;19.13;76.68;99865.03;5064258;28;20087;-60
2021/08/07 01:57:18;;;;;;;1.25;0.70;;;;;;;19.22;76.89;99858.44;5064588;28;20567;-60
2021/08/07 01:59:48;;;;;;;4.88;1.38;;;;;;;19.25;76.52;99857.69;5059855;28;20080;-60
2021/08/07 02:02:17;;;;;;;0.80;0.45;;;;;;;19.33;75.92;99856.75;5061504;28;20047;-59
2021/08/07 02:04:45;;;;;;;1.85;0.77;;;;;;;19.29;76.13;99853.00;5064402;28;20127;-61
2021/08/07 02:07:12;;;;;;;1.23;0.55;;;;;;;19.34;76.38;99852.72;5056731;28;20079;-61
2021/08/07 02:09:40;;;;;;;3.88;0.85;;;;;;;19.48;76.07;99847.50;5061261;28;20120;-61
2021/08/07 02:12:08;;;;;;;4.70;1.00;;;;;;;19.54;75.69;99860.22;5058941;28;20447;-60
2021/08/07 02:14:39;;;;;;;2.65;0.90;;;;;;;19.61;75.32;99866.13;5058582;28;20072;-59
2021/08/07 02:17:07;;;;;;;3.22;0.70;;;;;;;19.68;75.05;99865.53;5063798;28;20047;-59
2021/08/07 02:19:37;;;;;;;1.40;0.73;;;;;;;19.56;75.35;99857.88;5055716;28;20045;-58
2021/08/07 02:22:04;;;;;;;;;;;;;;;19.52;76.15;99862.63;5061221;28;20143;-58
2021/08/07 02:24:32;;;;;;;4.93;1.10;;;;;;;19.48;75.57;99861.66;5060422;28;19920;-59
2021/08/07 02:27:00;;;;;;;4.55;1.10;;;;;;;19.59;75.50;99853.50;5068080;28;20076;-59
2021/08/07 02:29:30;;;;;;;3.50;0.80;;;;;;;19.74;74.98;99860.47;5064330;28;20068;-57
2021/08/07 02:31:59;;;;;;;1.65;0.60;;;;;;;19.77;74.96;99856.91;5061386;28;20049;-58
2021/08/07 02:34:29;;;;;;;0.82;0.82;;;;;;;19.70;74.82;99853.88;5058960;28;20183;-57
2021/08/07 02:36:56;;;;;;;3.47;1.00;;;;;;;19.74;74.85;99854.78;5059006;28;20073;-58
2021/08/07 02:39:26;;;;;;;4.07;0.88;;;;;;;19.65;74.68;99844.41;5058237;28;20123;-56
2021/08/07 02:41:57;;;;;;;2.85;1.20;;;;;;;19.57;74.85;99845.34;5053307;28;20139;-56
2021/08/07 02:44:25;;;;;;;3.03;1.10;;;;;;;19.46;74.58;99854.72;5059562;28;20124;-56
2021/08/07 02:46:52;;;;;;;4.57;1.25;;;;;;;19.38;74.42;99854.50;5064195;28;20044;-57
2021/08/07 02:49:19;;;;;;;5.18;1.00;;;;;;;19.22;74.86;99849.94;5053391;28;20136;-58
2021/08/07 02:51:49;;;;;;;2.60;1.50;;;;;;;19.17;74.65;99870.78;5051767;28;20061;-58
2021/08/07 02:54:17;;;;;;;2.83;0.73;;;;;;;18.99;74.66;99858.09;5055601;28;20132;-56
2021/08/07 02:56:44;;;;;;;2.00;0.90;;;;;;;18.97;75.34;99844.28;5058482;28;20131;-58
2021/08/07 02:59:12;;;;;;;2.10;0.85;;;;;;;19.05;75.36;99868.00;5069997;28;20047;-55
2021/08/07 03:01:43;;;;;;;3.22;1.10;;;;;;;18.99;75.18;99873.06;5056143;28;20052;-57
2021/08/07 03:04:10;;;;;;;2.78;0.88;;;;;;;19.12;75.84;99868.22;5064153;28;20488;-59
2021/08/07 03:06:37;;;;;;;1.60;0.77;;;;;;;19.17;75.63;99870.78;5062186;28;20120;-58
2021/08/07 03:09:04;;;;;;;1.08;0.68;;;;;;;19.28;76.03;99876.78;5053205;28;20120;-59
2021/08/07 03:11:31;;;;;;;3.40;1.23;;;;;;;19.12;75.87;99876.72;5057917;28;20124;-59
2021/08/07 03:13:58;;;;;;;2.85;1.20;;;;;;;18.94;75.97;99876.94;5056411;28;20045;-58
2021/08/07 03:16:27;;;;;;;1.73;0.98;;;;;;;18.61;75.97;99837.41;5064656;28;20106;-58
2021/08/07 03:18:54;;;;;;;3.08;1.35;;;;;;;18.97;76.43;99883.88;5069912;28;20530;-58
2021/08/07 03:21:21;;;;;;;3.92;1.42;;;;;;;18.93;76.26;99880.13;5053080;28;20129;-59
2021/08/07 03:23:48;;;;;;;7.13;1.40;;;;;;;18.94;76.50;99882.59;5054403;28;20127;-58
2021/08/07 03:26:15;;;;;;;4.18;0.98;;;;;;;18.94;76.00;99882.59;5037204;28;20106;-54
2021/08/07 03:28:41;;;;;;;3.10;1.10;;;;;;;18.79;76.27;99871.97;5067955;28;20052;-54
2021/08/07 03:31:08;;;;;;;7.75;1.17;;;;;;;18.79;76.30;99879.63;5057112;28;20080;-55
2021/08/07 03:33:35;;;;;;;8.00;1.40;;;;;;;18.77;76.80;99885.66;5035633;28;20455;-55
2021/08/07 03:36:02;;;;;;;2.22;0.95;;;;;;;18.68;76.59;99876.41;5075548;28;20071;-51
2021/08/07 03:38:29;;;;;;;5.00;0.90;;;;;;;18.67;76.89;99886.91;5075534;28;20076;-55
2021/08/07 03:40:56;;;;;;;4.50;1.15;;;;;;;18.71;76.73;99887.03;5058288;28;20123;-54
2021/08/07 03:43:23;;;;;;;4.30;1.35;;;;;;;18.92;77.14;99882.13;5057230;28;20131;-55
2021/08/07 03:45:51;;;;;;;1.67;0.95;;;;;;;19.07;76.58;99882.59;5062452;28;20072;-54
2021/08/07 03:48:17;;;;;;;7.07;1.25;;;;;;;18.98;76.66;99891.22;5064613;28;20131;-56
2021/08/07 03:50:45;;;;;;;5.35;1.35;;;;;;;18.97;76.88;99895.19;5069361;28;20119;-55
2021/08/07 03:53:11;;;;;;;7.90;1.85;;;;;;;18.98;77.01;99890.41;5052732;28;20099;-60
2021/08/07 03:55:38;;;;;;;7.22;1.42;;;;;;;18.99;76.88;99897.69;5053363;28;20052;-60
2021/08/07 03:58:05;;;;;;;5.97;1.60;;;;;;;18.69;77.21;99844.94;5065081;28;20080;-60
2021/08/07 04:00:34;;;;;;;6.38;1.75;;;;;;;18.93;77.26;99886.59;5063500;28;20088;-60
2021/08/07 04:03:02;;;;;;;8.55;1.85;;;;;;;19.01;77.31;99895.31;5061373;28;20045;-61
2021/08/07 04:05:29;;;;;;;7.88;1.50;;;;;;;18.87;77.48;99873.03;5052029;28;20060;-60
2021/08/07 04:08:04;;;;;;;7.82;1.67;;;;;;;19.20;77.65;99891.91;5061215;28;20114;-59
2021/08/07 04:10:32;;;;;;;9.85;2.08;;;;;;;19.44;77.31;99911.69;5053349;28;20068;-59
2021/08/07 04:12:59;;;;;;;5.43;1.42;;;;;;;19.59;77.29;99910.16;5061754;28;20049;-59
2021/08/07 04:15:26;;;;;;;3.35;1.35;;;;;;;19.72;76.89;99903.28;5057844;28;20084;-58
2021/08/07 04:17:53;;;;;;;5.18;1.58;;;;;;;19.69;76.47;99908.84;5053021;28;20080;-57
2021/08/07 04:20:20;;;;;;;5.20;1.60;;;;;;;19.56;76.28;99908.84;5065450;28;20076;-58
2021/08/07 04:22:47;;;;;;;7.68;1.35;;;;;;;19.48;76.32;99909.78;5059640;28;20079;-58
2021/08/07 04:25:14;;;;;;;6.03;1.30;;;;;;;19.58;76.49;99917.81;5047504;28;20051;-59
2021/08/07 04:27:41;;;;;;;12.43;1.75;;;;;;;19.60;76.30;99906.97;5061080;28;20080;-59
2021/08/07 04:30:10;;;;;;;4.40;1.80;;;;;;;19.40;76.20;99874.78;5059492;28;20077;-58
2021/08/07 04:32:37;;;;;;;6.65;1.30;;;;;;;19.73;76.82;99904.97;5052933;28;20127;-55
2021/08/07 04:35:06;;;;;;;3.95;1.20;;;;;;;20.02;76.23;99920.78;5057069;28;20076;-58
2021/08/07 04:37:44;;;;;;;5.85;1.05;;;;;;;20.33;76.59;99916.41;5073598;28;20067;-59
2021/08/07 04:40:12;;;;;;;5.68;1.10;;;;;;;20.55;75.65;99895.19;5071078;28;20069;-60
2021/08/07 04:42:39;;;;;;;4.93;1.17;;;;;;;20.84;74.56;99930.81;5059381;28;20087;-60
2021/08/07 04:45:07;;;;;;;8.95;1.80;;;;;;;20.93;74.72;99922.94;5053028;28;20140;-59
2021/08/07 04:47:33;;;;;;;5.10;0.82;;;;;;;21.09;74.65;99933.47;5073463;28;20129;-61
2021/08/07 04:50:00;;;;;;;5.80;1.40;;;;;;;21.11;73.69;99934.75;5057473;28;20214;-56
2021/08/07 04:52:27;;;;;;;3.42;1.55;;;;;;;21.01;73.27;99907.75;5057379;28;20056;-57
2021/08/07 04:54:54;;;;;;;4.75;0.75;;;;;;;21.17;73.70;99944.66;5051749;28;20099;-57
2021/08/07 04:57:21;;;;;;;2.67;0.80;;;;;;;21.18;73.37;99940.59;5060582;28;20132;-58
2021/08/07 04:59:47;;;;;;;4.05;0.90;;;;;;;21.14;73.64;99944.56;5058694;28;20044;-58
2021/08/07 05:02:14;;;;;;;1.90;0.75;;;;;;;21.06;73.32;99944.38;5068727;28;20056;-60
2021/08/07 05:04:41;;;;;;;5.05;1.10;;;;;;;20.74;73.17;99942.69;5059544;28;20049;-59
2021/08/07 05:07:08;;;;;;;6.53;1.20;;;;;;;20.46;73.52;99952.03;5062428;28;20080;-60
2021/08/07 05:09:35;;;;;;;4.25;1.00;;;;;;;20.24;73.79;99946.94;5060004;28;20120;-58
2021/08/07 05:12:02;;;;;;;2.60;1.08;;;;;;;20.17;73.86;99950.41;5063126;28;20088;-58
2021/08/07 05:14:29;;;;;;;7.82;1.33;;;;;;;20.15;74.57;99954.78;5058436;28;20124;-58
2021/08/07 05:16:56;;;;;;;4.20;1.13;;;;;;;20.30;74.69;99946.31;5058397;28;20456;-59
2021/08/07 05:19:22;;;;;;;5.47;1.10;;;;;;;20.50;74.53;99967.16;5070245;28;20119;-59
2021/08/07 05:21:49;;;;;;;6.47;1.25;;;;;;;20.55;74.10;99952.75;5062850;28;20123;-58
2021/08/07 05:24:16;;;;;;;2.03;0.95;;;;;;;20.64;74.36;99961.06;5070760;28;20136;-60
2021/08/07 05:26:43;;;;;;;4.00;1.33;;;;;;;20.76;74.10;99963.03;5066025;28;20190;-60
2021/08/07 05:29:10;;;;;;;5.85;1.88;;;;;;;20.83;73.72;99966.06;5063140;28;20059;-60
2021/08/07 05:31:37;;;;;;;4.40;1.40;;;;;;;20.89;73.58;99973.13;5065145;28;20127;-59
2021/08/07 05:34:03;;;;;;;14.13;1.48;;;;;;;20.89;73.43;99973.13;5064440;28;20456;-61
2021/08/07 05:36:30;;;;;;;3.55;1.17;;;;;;;20.91;73.48;99982.06;5069063;28;20511;-60
2021/08/07 05:38:57;;;;;;;6.20;1.20;;;;;;;20.87;73.23;99981.16;5065018;28;20425;-60
2021/08/07 05:41:24;;;;;;;4.60;1.50;;;;;;;20.61;73.17;99961.78;5076525;28;20051;-60
2021/08/07 05:43:50;;;;;;;8.40;1.30;;;;;;;20.71;73.10;99988.81;5071334;28;20076;-60
2021/08/07 05:46:18;;;;;;;5.97;1.45;;;;;;;20.45;73.37;99981.59;5060072;28;20139;-61
2021/08/07 05:48:45;;;;;;;8.30;1.63;;;;;;;20.47;73.61;99979.19;5054988;28;20531;-61
2021/08/07 05:51:11;;;;;;;4.60;1.33;;;;;;;20.43;73.69;99989.63;5058720;28;20053;-61
2021/08/07 05:53:38;;;;;;;4.47;1.40;;;;;;;20.51;73.41;100000.03;5070759;28;20491;-65
2021/08/07 05:56:05;;;;;;;9.48;1.52;;;;;;;20.50;73.52;100001.22;5063872;28;20127;-64
2021/08/07 05:58:37;;;;;;;8.25;1.63;;;;;;;20.29;73.55;99972.19;5045189;28;20567;-62
2021/08/07 06:01:07;;;;;;;2.88;1.27;;;;;;;20.54;74.15;99996.47;5058324;28;20038;-61
2021/08/07 06:03:35;;;;;;;3.55;1.40;;;;;;;20.35;73.29;99984.94;5069861;28;20063;-62
2021/08/07 06:06:02;;;;;;;6.03;1.38;;;;;;;20.12;73.52;100008.16;5065394;28;20048;-64
2021/08/07 06:08:29;;;;;;;2.70;1.08;;;;;;;19.94;73.85;100005.97;5061360;28;20131;-60
2021/08/07 06:10:57;;;;;;;6.38;1.73;;;;;;;19.88;74.12;100016.72;5074221;28;20044;-60
2021/08/07 06:13:25;;;;;;;5.68;1.35;;;;;;;19.86;74.33;100016.22;5054775;28;20127;-61
2021/08/07 06:15:52;;;;;;;3.50;1.10;;;;;;;19.79;74.62;100016.00;5054607;28;20055;-61
2021/08/07 06:18:19;;;;;;;5.57;1.52;;;;;;;19.80;74.71;100007.16;5069220;28;20044;-62
2021/08/07 06:20:46;;;;;;;4.78;1.50;;;;;;;19.86;74.75;100016.22;5072597;28;20127;-62
2021/08/07 06:23:13;;;;;;;4.90;1.73;;;;;;;19.94;74.67;100022.97;5064172;28;20124;-62
2021/08/07 06:25:40;;;;;;;14.40;2.15;;;;;;;20.00;75.06;100028.03;5065355;28;20123;-61
2021/08/07 06:28:07;;;;;;;3.42;1.40;;;;;;;20.18;75.59;100027.78;5062990;28;20063;-62
2021/08/07 06:30:35;;;;;;;6.85;1.80;;;;;;;20.45;75.19;100021.31;5053484;28;20128;-62
2021/08/07 06:33:02;;;;;;;7.57;3.17;;;;;;;20.60;74.96;100019.72;5068348;28;20045;-62
2021/08/07 06:35:29;;;;;;;6.40;1.65;;;;;;;20.71;74.78;100005.84;5067524;28;20131;-62
2021/08/07 06:37:56;;;;;;;7.25;1.95;;;;;;;21.00;74.26;100042.34;5067319;28;20073;-62
2021/08/07 06:40:23;;;;;;;7.53;1.98;;;;;;;20.67;74.06;99973.72;5052571;28;20124;-62
2021/08/07 06:42:50;;;;;;;8.30;1.55;;;;;;;21.11;73.84;100030.47;5056478;28;20672;-62
2021/08/07 06:45:17;;;;;;;8.57;2.63;;;;;;;21.28;74.13;100042.28;5051512;28;20037;-62
2021/08/07 06:47:44;;;;;;;5.80;1.88;;;;;;;21.46;73.59;100042.78;5060516;28;20128;-63
2021/08/07 06:50:11;;;;;;;4.18;1.23;;;;;;;21.50;73.20;100023.84;5059742;28;20052;-64
2021/08/07 06:52:38;;;;;;;9.77;1.48;;;;;;;21.80;73.07;100039.56;5054530;28;20497;-63
2021/08/07 06:55:06;;;;;;;10.00;1.58;;;;;;;21.97;73.05;100051.34;5057413;28;20544;-64
2021/08/07 06:57:33;;;;;;;7.00;1.25;;;;;;;22.09;72.53;100035.38;5051988;28;20179;-63
2021/08/07 07:00:02;;;;;;;8.65;1.55;;;;;;;22.33;72.03;100040.84;5050945;28;20592;-64
2021/08/07 07:02:29;;;;;;;4.55;1.65;;;;;;;22.48;71.96;100030.56;5054969;28;20441;-64
2021/08/07 07:04:56;;;;;;;4.20;1.75;;;;;;;22.72;71.45;100055.06;5051269;28;20094;-64
2021/08/07 07:07:23;;;;;;;6.63;1.83;;;;;;;22.76;71.36;100041.72;5064459;28;20472;-63
2021/08/07 07:09:50;;;;;;;9.07;2.10;;;;;;;23.05;70.44;100048.03;5056461;28;20087;-63
2021/08/07 07:12:17;;;;;;;7.80;2.30;;;;;;;23.21;70.56;100057.28;5064760;28;20127;-63
2021/08/07 07:14:44;;;;;;;6.28;1.70;;;;;;;23.26;70.08;100044.75;5071581;28;20128;-64
2021/08/07 07:17:11;;;;;;;7.55;2.10;;;;;;;23.63;69.57;100067.81;5056602;28;20485;-63
2021/08/07 07:19:38;;;;;;;8.40;1.52;;;;;;;23.83;69.09;100055.16;5059792;28;20128;-63
2021/08/07 07:22:06;;;;;;;5.25;1.75;;;;;;;24.32;68.56;100065.66;5065146;28;20087;-63
2021/08/07 07:24:33;;;;;;;5.78;1.65;;;;;;;24.60;67.66;100070.16;5065039;28;20135;-64
2021/08/07 07:27:03;;;;;;;4.95;1.92;;;;;;;24.59;67.44;100063.63;5059040;28;20447;-64
2021/08/07 07:29:30;;;;;;;5.93;2.38;;;;;;;24.81;67.29;100084.69;5036020;28;20076;-64
2021/08/07 07:31:57;;;;;;;6.53;2.42;;;;;;;25.09;66.42;100086.25;5051534;28;20163;-62
2021/08/07 07:34:24;;;;;;;10.93;1.85;;;;;;;25.44;65.72;100076.47;5055921;28;20135;-62
2021/08/07 07:36:51;;;;;;;7.80;1.70;;;;;;;25.79;65.42;100078.81;5059542;28;20128;-62
2021/08/07 07:39:18;;;;;;;8.75;2.50;;;;;;;25.98;64.80;100070.03;5058201;28;20099;-62
2021/08/07 07:41:45;;;;;;;4.43;1.80;;;;;;;26.13;63.86;100073.81;5055383;28;20094;-62
2021/08/07 07:44:12;;;;;;;4.10;1.67;;;;;;;26.32;63.45;100083.31;5041527;28;20123;-63
2021/08/07 07:46:39;;;;;;;11.23;2.05;;;;;;;26.52;63.09;100093.28;5060193;28;20123;-64
2021/08/07 07:49:06;;;;;;;5.70;2.00;;;;;;;26.16;63.04;100098.78;5062379;28;20082;-64
2021/08/07 07:51:33;;;;;;;6.55;1.95;;;;;;;25.48;63.38;100109.59;5061770;28;20574;-66
2021/08/07 07:54:00;;;;;;;11.95;2.50;;;;;;;25.03;64.01;100117.22;5070956;28;20052;-64
2021/08/07 07:56:27;;;;;;;11.63;1.90;;;;;;;24.49;65.00;100114.88;5054949;28;20480;-63
2021/08/07 07:58:54;;;;;;;6.82;3.33;;;;;;;24.30;65.58;100110.06;5063046;28;20131;-62
2021/08/07 08:01:21;;;;;;;8.65;2.17;;;;;;;24.21;65.54;100104.63;5052779;28;20124;-63
2021/08/07 08:03:49;;;;;;;8.05;2.17;;;;;;;24.58;64.98;100110.53;5056638;28;20405;-58
2021/08/07 08:06:16;;;;;;;8.18;2.03;;;;;;;25.29;64.25;100122.03;5058445;28;20499;-60
2021/08/07 08:08:43;;;;;;;8.07;1.92;;;;;;;25.90;63.42;100121.84;5067530;28;20114;-60
2021/08/07 08:11:10;;;;;;;8.27;1.95;;;;;;;26.45;62.27;100119.00;5056842;28;20123;-61
2021/08/07 08:13:38;;;;;;;10.13;1.73;;;;;;;26.85;61.51;100128.66;5051249;28;20418;-61
2021/08/07 08:16:07;;;;;;;8.40;1.50;;;;;;;27.15;60.96;100137.03;5057144;28;20127;-61
2021/08/07 08:18:34;;;;;;;9.25;1.98;;;;;;;27.30;60.73;100135.03;5056325;28;20040;-62
2021/08/07 08:21:01;;;;;;;6.18;1.73;;;;;;;27.06;60.86;100139.41;5071814;28;20136;-61
2021/08/07 08:23:28;;;;;;;13.52;2.08;;;;;;;26.79;61.11;100154.00;5068294;28;20514;-61
2021/08/07 08:25:55;;;;;;;6.65;1.05;;;;;;;26.59;60.46;100144.88;5051415;28;20091;-61
2021/08/07 08:28:23;;;;;;;9.98;1.88;;;;;;;26.43;60.87;100147.22;5063218;28;20123;-60
2021/08/07 08:30:50;;;;;;;6.32;2.30;;;;;;;26.55;60.41;100149.78;5071357;28;20135;-61
2021/08/07 08:33:17;;;;;;;6.50;1.50;;;;;;;26.90;59.50;100142.59;5068044;28;20052;-61
2021/08/07 08:35:46;;;;;;;7.20;2.00;;;;;;;27.06;58.97;100154.56;5070930;28;20083;-61
2021/08/07 08:38:13;;;;;;;7.53;1.75;;;;;;;27.37;58.39;100132.97;5071098;28;20083;-60
2021/08/07 08:40:40;;;;;;;6.75;1.70;;;;;;;27.81;57.63;100154.00;5071025;28;20646;-61
2021/08/07 08:43:07;;;;;;;7.70;1.50;;;;;;;28.15;57.17;100162.25;5069905;28;20091;-61
2021/08/07 08:45:35;;;;;;;6.25;1.42;;;;;;;28.59;56.50;100164.69;5070201;28;20044;-61
2021/08/07 08:48:04;;;;;;;6.55;1.35;;;;;;;28.97;55.43;100160.06;5072059;28;20048;-60
2021/08/07 08:50:31;;;;;;;5.18;1.75;;;;;;;29.37;55.28;100152.13;5066719;28;20080;-62
2021/08/07 08:53:00;;;;;;;4.63;1.40;;;;;;;29.61;53.85;100143.81;5051665;28;20056;-61
2021/08/07 08:55:27;;;;;;;6.07;1.50;;;;;;;29.73;54.34;100178.66;5067570;28;20079;-61
2021/08/07 08:57:55;;;;;;;9.20;1.83;;;;;;;29.95;54.14;100176.47;5071170;28;20521;-61
2021/08/07 09:00:22;;;;;;;7.22;1.90;;;;;;;30.43;53.78;100183.50;5071863;28;20072;-60
2021/08/07 09:02:49;;;;;;;5.60;1.70;;;;;;;30.78;52.47;100179.47;5069464;28;20072;-60
2021/08/07 09:05:16;;;;;;;5.43;1.42;;;;;;;30.99;51.53;100177.59;5071583;28;20056;-61
2021/08/07 09:07:45;;;;;;;4.65;1.65;;;;;;;30.76;50.89;100176.19;5064905;28;20128;-61
2021/08/07 09:10:13;;;;;;;6.20;1.17;;;;;;;30.45;51.61;100184.69;5051402;28;20077;-62
2021/08/07 09:12:48;;;;;;;8.02;1.70;;;;;;;29.92;51.42;100191.69;5057603;28;20056;-61
2021/08/07 09:15:31;;;;;;;6.65;2.08;;;;;;;30.00;53.09;100186.69;5070299;28;20064;-61
2021/08/07 09:18:10;;;;;;;4.55;1.88;;;;;;;29.56;52.77;100198.88;5071289;28;20048;-60
2021/08/07 09:20:38;;;;;;;6.18;1.70;;;;;;;29.36;52.09;100199.38;5070809;28;20099;-60
2021/08/07 09:23:06;;;;;;;9.30;2.20;;;;;;;29.20;52.02;100196.19;5070845;28;20471;-60
2021/08/07 09:25:34;;;;;;;5.25;1.50;;;;;;;29.58;51.15;100199.28;5069208;28;20095;-60
2021/08/07 09:28:01;;;;;;;9.93;1.60;;;;;;;29.88;50.43;100208.19;5079809;28;20122;-60
2021/08/07 09:30:32;;;;;;;8.35;2.10;;;;;;;29.59;50.56;100195.16;5081174;28;20490;-61
2021/08/07 09:33:00;;;;;;;9.60;1.50;;;;;;;29.44;51.21;100214.56;5071286;28;20187;-61
2021/08/07 09:35:33;;;;;;;4.10;1.25;;;;;;;29.40;50.84;100200.19;5070607;28;20088;-61
2021/08/07 09:38:09;;;;;;;3.83;1.83;;;;;;;29.52;49.68;100214.09;5070023;28;20048;-61
2021/08/07 09:40:50;;;;;;;8.00;1.48;;;;;;;29.38;49.05;100208.41;5052580;28;20127;-61
2021/08/07 09:43:28;;;;;;;7.10;1.00;;;;;;;29.02;48.60;100208.53;5048023;28;20141;-61
2021/08/07 09:46:20;;;;;;;8.70;1.60;;;;;;;28.95;48.62;100210.56;5070614;28;20079;-61
2021/08/07 09:48:51;;;;;;;4.78;1.55;;;;;;;29.03;47.25;100215.13;5075440;28;20080;-61
2021/08/07 09:51:30;;;;;;;4.22;1.58;;;;;;;29.12;46.93;100211.78;5074971;28;20087;-61
2021/08/07 09:54:18;;;;;;;5.80;2.67;;;;;;;29.16;46.80;100224.09;5066175;28;20056;-61
2021/08/07 09:56:57;;;;;;;7.75;1.80;;;;;;;29.22;46.60;100225.31;5073578;28;20381;-61
2021/08/07 09:59:26;;;;;;;5.50;1.95;;;;;;;29.45;45.59;100222.75;5062303;28;20080;-61
2021/08/07 10:01:53;;;;;;;;;;;;;;;29.19;49.26;100217.53;5054865;28;20059;-61
2021/08/07 10:04:21;;;;;;;4.75;1.20;;;;;;;29.23;46.93;100222.03;5073404;28;19974;-61
2021/08/07 10:07:09;;;;;;;4.25;1.80;;;;;;;29.34;45.90;100236.38;5072698;28;20060;-61
2021/08/07 10:09:37;;;;;;;4.72;1.48;;;;;;;29.23;45.79;100224.91;5071171;28;20136;-61
2021/08/07 10:12:08;;;;;;;8.23;1.58;;;;;;;29.21;45.48;100230.25;5073218;28;20083;-61
2021/08/07 10:14:36;;;;;;;4.35;1.67;;;;;;;29.33;44.62;100234.72;5074070;28;20088;-61
2021/08/07 10:17:04;;;;;;;3.33;1.20;;;;;;;29.53;44.56;100214.91;5059869;28;20048;-60
2021/08/07 10:19:33;;;;;;;4.90;1.27;;;;;;;30.03;43.84;100248.38;5074015;28;20072;-60
2021/08/07 10:22:02;;;;;;;7.15;1.50;;;;;;;30.44;43.81;100237.81;5073245;28;20052;-60
2021/08/07 10:24:29;;;;;;;7.45;1.33;;;;;;;30.68;41.99;100250.38;5062052;28;20127;-61
2021/08/07 10:26:58;;;;;;;5.63;1.88;;;;;;;30.92;42.17;100233.28;5073335;28;20551;-61
2021/08/07 10:29:46;;;;;;;7.38;1.27;;;;;;;31.28;41.78;100242.38;5061050;28;20049;-61
2021/08/07 10:32:14;;;;;;;4.07;1.50;;;;;;;31.38;40.31;100229.91;5071760;28;20132;-61
2021/08/07 10:34:45;;;;;;;6.00;1.58;;;;;;;31.54;40.00;100222.69;5058616;28;20128;-62
2021/08/07 10:37:13;;;;;;;5.13;1.90;;;;;;;31.40;39.14;100177.53;5074171;28;20123;-61
2021/08/07 10:39:41;;;;;;;3.47;1.50;;;;;;;31.99;39.46;100236.94;5071673;28;20123;-62
2021/08/07 10:42:10;;;;;;;6.00;1.33;;;;;;;31.98;38.35;100220.88;5073351;28;20084;-61
2021/08/07 10:44:41;;;;;;;5.05;1.63;;;;;;;32.26;37.88;100226.19;5073410;28;20475;-62
2021/08/07 10:47:08;;;;;;;3.63;1.67;;;;;;;32.51;38.33;100242.31;5070318;28;20386;-61
2021/08/07 10:49:46;;;;;;;5.47;1.20;;;;;;;32.61;37.72;100221.09;5068087;28;20143;-62
2021/08/07 10:52:21;;;;;;;4.28;1.40;;;;;;;32.41;37.06;100229.69;5064570;28;20084;-61
2021/08/07 10:54:53;;;;;;;6.03;1.55;;;;;;;32.07;36.80;100235.59;5073449;28;20468;-61
2021/08/07 10:57:39;;;;;;;3.83;1.60;;;;;;;31.91;37.40;100233.34;5074066;28;20052;-61
2021/08/07 11:00:16;;;;;;;9.02;1.70;;;;;;;31.95;36.55;100234.09;5081169;28;20044;-60
2021/08/07 11:02:44;;;;;;;3.40;1.23;;;;;;;32.22;36.23;100237.00;5072042;28;20048;-60
2021/08/07 11:05:13;;;;;;;7.68;1.90;;;;;;;32.27;35.66;100227.81;5073447;28;20048;-61
2021/08/07 11:07:40;;;;;;;4.75;1.73;;;;;;;32.11;35.63;100247.09;5059203;28;20207;-60
2021/08/07 11:10:13;;;;;;;6.00;1.40;;;;;;;32.07;35.23;100238.47;5063467;28;20459;-61
2021/08/07 11:12:45;;;;;;;5.43;1.33;;;;;;;31.96;35.66;100237.81;5072955;28;20040;-61
2021/08/07 11:15:31;;;;;;;5.38;1.33;;;;;;;31.69;35.81;100232.78;5072002;28;20048;-62
2021/08/07 11:18:23;;;;;;;8.48;1.83;;;;;;;32.03;35.97;100247.16;5071629;28;20049;-61
2021/08/07 11:20:50;;;;;;;9.95;1.77;;;;;;;32.10;35.38;100252.03;5071563;28;20041;-61
2021/08/07 11:23:18;;;;;;;4.18;1.48;;;;;;;32.32;34.98;100244.69;5071649;28;20064;-61
2021/08/07 11:25:47;;;;;;;4.55;1.33;;;;;;;32.75;34.19;100235.31;5072347;28;20116;-61
2021/08/07 11:28:14;;;;;;;2.85;1.23;;;;;;;32.55;34.85;100249.69;5083169;28;20135;-61
2021/08/07 11:30:41;;;;;;;4.15;1.40;;;;;;;32.07;34.43;100252.94;5076104;28;20131;-61
2021/08/07 11:33:11;;;;;;;6.88;2.05;;;;;;;32.16;33.95;100258.16;5072938;28;20124;-61
2021/08/07 11:35:38;;;;;;;7.25;1.33;;;;;;;32.19;33.80;100255.19;5071993;28;20139;-62
2021/08/07 11:38:16;;;;;;;4.47;1.90;;;;;;;32.12;33.86;100237.97;5072848;28;20048;-60